< < Back
Terminal Aerodrome Forecast


Current Version              Previous Versions:   1  2  3  4  5  6  7  8  9  

Terminal Aerodrome Forecast

252
FTUS42 KTAE 042320
TAFVLD
TAF
KVLD 042320Z 0500/0524 31005KT P6SM SKC
     FM051500 34012G17KT P6SM SKC=



Latest METAR

540
SAUS70 KWBC 050100 RRI
MTRVLD
METAR KVLD 050053Z 00000KT 10SM CLR 18/12 A2971 RMK AO2 SLP067
T01830117


USA.gov is the U.S. government's official web portal to all federal, state and local government web resources and services.